createdAt,value
2023-01-13T00:04:22.222Z,13.70
2023-01-13T00:09:24.321Z,13.70
2023-01-13T00:14:29.623Z,13.70
2023-01-13T00:19:31.721Z,13.70
2023-01-13T00:24:33.811Z,13.70
2023-01-13T00:29:36.267Z,13.60
2023-01-13T00:39:41.304Z,13.70
2023-01-13T00:44:43.400Z,13.70
2023-01-13T00:49:45.501Z,13.60
2023-01-13T00:54:47.572Z,13.60
2023-01-13T00:59:49.821Z,13.70
2023-01-13T01:04:51.930Z,13.70
2023-01-13T01:09:53.979Z,13.70
2023-01-13T01:14:56.033Z,13.70
2023-01-13T01:19:58.094Z,13.70
2023-01-13T01:25:00.232Z,13.70
2023-01-13T01:30:02.269Z,13.70
2023-01-13T01:35:04.746Z,13.60
2023-01-13T01:45:19.340Z,13.60
2023-01-13T01:50:21.475Z,13.50
2023-01-13T01:55:29.450Z,13.50
2023-01-13T02:05:36.951Z,13.40
2023-01-13T02:10:41.436Z,13.40
2023-01-13T02:16:16.999Z,13.40
2023-01-13T02:21:25.204Z,13.40
2023-01-13T02:27:04.302Z,13.40
2023-01-13T02:32:21.014Z,13.40
2023-01-13T02:37:29.948Z,13.40
2023-01-13T02:42:58.452Z,13.50
2023-01-13T02:48:04.733Z,13.50
2023-01-13T02:53:25.142Z,13.50
2023-01-13T02:58:29.737Z,13.60
2023-01-13T03:03:31.827Z,13.60
2023-01-13T03:08:46.605Z,14.70
2023-01-13T03:14:03.701Z,13.70
2023-01-13T03:19:26.532Z,13.70
2023-01-13T03:24:43.066Z,13.70
2023-01-13T03:29:45.555Z,13.70
2023-01-13T03:34:51.594Z,13.70
2023-01-13T03:39:59.171Z,13.70
2023-01-13T03:45:12.605Z,13.80
2023-01-13T03:50:14.873Z,13.80
2023-01-13T03:55:20.899Z,13.80
2023-01-13T04:00:30.225Z,13.80
2023-01-13T04:05:36.028Z,13.70
2023-01-13T04:10:45.443Z,13.90
2023-01-13T04:15:49.735Z,13.90
2023-01-13T04:20:53.829Z,13.90
2023-01-13T04:25:56.563Z,13.90
2023-01-13T04:30:58.603Z,13.90
2023-01-13T04:36:00.717Z,13.90
2023-01-13T04:41:02.882Z,13.90
2023-01-13T04:46:05.205Z,13.90
2023-01-13T04:51:07.327Z,13.90
2023-01-13T04:56:09.371Z,13.90
2023-01-13T05:01:11.570Z,13.90
2023-01-13T05:11:35.019Z,13.90
2023-01-13T05:16:56.068Z,13.90
2023-01-13T05:27:19.485Z,13.90
2023-01-13T05:32:22.747Z,13.90
2023-01-13T05:37:25.901Z,13.90
2023-01-13T05:42:46.769Z,14.00
2023-01-13T05:52:51.398Z,14.00
2023-01-13T05:57:53.572Z,14.00
2023-01-13T06:07:59.331Z,14.00
2023-01-13T06:13:01.779Z,14.00
2023-01-13T06:18:04.861Z,13.90
2023-01-13T06:23:10.834Z,13.90
2023-01-13T06:28:13.027Z,13.80
2023-01-13T06:33:21.232Z,13.70
2023-01-13T06:38:27.327Z,13.40
2023-01-13T06:43:29.549Z,13.20
2023-01-13T06:48:35.055Z,13.00
2023-01-13T06:53:37.200Z,13.00
2023-01-13T06:58:39.456Z,12.90
2023-01-13T07:03:41.705Z,12.80
2023-01-13T07:08:43.885Z,12.80
2023-01-13T07:14:04.574Z,12.70
2023-01-13T07:19:06.794Z,12.60
2023-01-13T07:24:08.932Z,12.50
2023-01-13T07:29:11.394Z,12.40
2023-01-13T07:34:13.562Z,12.40
2023-01-13T07:39:15.733Z,12.30
2023-01-13T07:44:17.855Z,12.30
2023-01-13T07:54:39.111Z,12.40
2023-01-13T07:59:42.238Z,12.10
2023-01-13T08:04:44.371Z,12.10
2023-01-13T08:09:46.660Z,12.00
2023-01-13T08:19:52.921Z,11.90
2023-01-13T08:24:55.118Z,11.90
2023-01-13T08:29:57.426Z,11.90
2023-01-13T08:34:59.770Z,11.90
2023-01-13T08:40:02.080Z,11.80
2023-01-13T08:45:07.431Z,11.90
2023-01-13T08:50:10.765Z,11.90
2023-01-13T08:55:13.036Z,11.90
2023-01-13T09:05:19.724Z,12.00
2023-01-13T09:10:22.083Z,12.10
2023-01-13T09:15:24.234Z,12.20
2023-01-13T09:20:26.381Z,12.30
2023-01-13T09:25:28.643Z,12.30
2023-01-13T09:35:33.586Z,12.60
2023-01-13T09:40:39.783Z,12.60
2023-01-13T09:46:01.796Z,12.60
2023-01-13T09:51:16.660Z,12.80
2023-01-13T09:56:18.911Z,12.90
2023-01-13T10:01:39.020Z,13.10
2023-01-13T10:06:46.748Z,13.00
2023-01-13T10:12:08.823Z,13.10
2023-01-13T10:17:38.567Z,13.20
2023-01-13T10:27:47.016Z,13.10
2023-01-13T10:32:59.155Z,13.20
2023-01-13T10:38:01.296Z,13.00
2023-01-13T10:43:06.425Z,13.00
2023-01-13T10:48:14.839Z,13.10
2023-01-13T10:53:24.212Z,13.10
2023-01-13T10:58:27.699Z,13.10
2023-01-13T11:03:43.032Z,13.20
2023-01-13T11:08:48.380Z,13.20
2023-01-13T11:19:18.266Z,13.30
2023-01-13T11:24:46.093Z,13.30
2023-01-13T11:35:02.292Z,13.60
2023-01-13T11:40:14.712Z,13.70
2023-01-13T11:45:38.400Z,13.80
2023-01-13T11:50:48.226Z,13.90
2023-01-13T11:55:59.129Z,13.90
2023-01-13T12:01:32.489Z,14.20
2023-01-13T12:06:40.106Z,14.20
2023-01-13T12:12:19.268Z,14.20
2023-01-13T12:17:38.452Z,14.20
2023-01-13T12:22:42.617Z,14.30
2023-01-13T12:28:07.681Z,14.40
2023-01-13T12:33:29.220Z,14.50
2023-01-13T12:38:42.326Z,14.50
2023-01-13T12:44:07.188Z,14.40
2023-01-13T12:49:20.522Z,14.40
2023-01-13T12:59:40.854Z,14.50
2023-01-13T13:04:49.217Z,14.60
2023-01-13T13:09:57.376Z,14.70
2023-01-13T13:15:03.229Z,14.80
2023-01-13T13:20:44.572Z,14.80
2023-01-13T13:26:11.714Z,14.70
2023-01-13T13:37:05.846Z,13.70
2023-01-13T13:42:39.722Z,13.20
2023-01-13T13:47:42.032Z,12.80
2023-01-13T13:53:05.149Z,12.20
2023-01-13T13:58:17.645Z,12.50
2023-01-13T14:03:34.071Z,12.40
2023-01-13T14:08:38.892Z,12.50
2023-01-13T14:13:41.173Z,12.80
2023-01-13T14:18:47.370Z,12.90
2023-01-13T14:23:52.358Z,13.00
2023-01-13T14:28:56.298Z,13.20
2023-01-13T14:34:02.814Z,13.10
2023-01-13T14:39:33.393Z,12.90
2023-01-13T14:44:36.924Z,12.80
2023-01-13T14:49:49.783Z,12.70
2023-01-13T14:54:54.919Z,12.80
2023-01-13T15:00:19.113Z,12.60
2023-01-13T15:05:23.975Z,12.60
2023-01-13T15:10:32.469Z,12.50
2023-01-13T15:20:42.357Z,12.50
2023-01-13T15:25:44.525Z,12.50
2023-01-13T15:30:47.761Z,12.40
2023-01-13T15:35:52.277Z,12.40
2023-01-13T15:40:54.368Z,12.20
2023-01-13T15:46:14.905Z,12.40
2023-01-13T15:51:16.964Z,12.30
2023-01-13T15:56:26.764Z,12.30
2023-01-13T16:01:28.913Z,12.20
2023-01-13T16:11:38.572Z,12.10
2023-01-13T16:16:40.933Z,12.10
2023-01-13T16:21:43.314Z,12.00
2023-01-13T16:26:45.538Z,12.00
2023-01-13T16:31:47.675Z,11.90
2023-01-13T16:36:50.250Z,11.90
2023-01-13T16:41:52.399Z,11.80
2023-01-13T16:46:54.534Z,12.00
2023-01-13T16:51:56.666Z,11.80
2023-01-13T16:56:58.775Z,11.90
2023-01-13T17:02:01.918Z,11.70
2023-01-13T17:07:06.255Z,11.60
2023-01-13T17:12:09.950Z,11.60
2023-01-13T17:17:27.012Z,11.50
2023-01-13T17:22:30.796Z,11.50
2023-01-13T17:27:33.089Z,11.50
2023-01-13T17:32:35.350Z,11.50
2023-01-13T17:37:37.441Z,11.40
2023-01-13T17:42:39.573Z,11.40
2023-01-13T17:47:41.753Z,11.40
2023-01-13T17:52:43.874Z,11.40
2023-01-13T17:57:45.923Z,11.30
2023-01-13T18:02:48.121Z,11.30
2023-01-13T18:07:51.120Z,11.30
2023-01-13T18:12:53.214Z,11.20
2023-01-13T18:17:56.136Z,11.20
2023-01-13T18:23:16.725Z,11.20
2023-01-13T18:28:18.842Z,11.20
2023-01-13T18:33:21.225Z,11.20
2023-01-13T18:38:26.707Z,11.10
2023-01-13T18:43:32.237Z,11.20
2023-01-13T18:53:37.001Z,11.10
2023-01-13T18:58:43.889Z,11.10
2023-01-13T19:03:45.974Z,11.10
2023-01-13T19:08:53.044Z,11.20
2023-01-13T19:13:55.176Z,11.20
2023-01-13T19:18:57.336Z,11.20
2023-01-13T19:23:59.500Z,11.10
2023-01-13T19:29:01.725Z,11.10
2023-01-13T19:34:03.907Z,11.10
2023-01-13T19:39:05.991Z,11.10
2023-01-13T19:44:29.922Z,11.10
2023-01-13T19:49:33.078Z,11.20
2023-01-13T19:54:35.401Z,11.30
2023-01-13T19:59:40.750Z,11.30
2023-01-13T20:09:52.212Z,11.40
2023-01-13T20:14:54.830Z,11.40
2023-01-13T20:19:58.944Z,11.30
2023-01-13T20:25:01.022Z,11.30
2023-01-13T20:30:04.093Z,11.30
2023-01-13T20:35:07.516Z,11.30
2023-01-13T20:40:15.999Z,11.30
2023-01-13T20:45:22.648Z,11.40
2023-01-13T20:50:24.737Z,11.40
2023-01-13T20:55:26.885Z,11.30
2023-01-13T21:00:29.759Z,11.30
2023-01-13T21:05:34.106Z,11.20
2023-01-13T21:10:36.228Z,11.20
2023-01-13T21:15:38.340Z,11.20
2023-01-13T21:20:40.592Z,11.10
2023-01-13T21:25:44.190Z,11.10
2023-01-13T21:35:49.875Z,11.10
2023-01-13T21:41:05.852Z,11.10
2023-01-13T21:46:34.094Z,11.00
2023-01-13T21:51:36.502Z,11.00
2023-01-13T21:56:38.663Z,11.00
2023-01-13T22:02:04.775Z,11.00
2023-01-13T22:07:04.568Z,11.00
2023-01-13T22:12:06.793Z,11.00
2023-01-13T22:17:09.237Z,11.00
2023-01-13T22:22:14.393Z,11.00
2023-01-13T22:27:19.247Z,11.10
2023-01-13T22:37:23.876Z,11.10
2023-01-13T22:42:26.215Z,11.20
2023-01-13T22:47:31.228Z,11.20
2023-01-13T22:52:34.639Z,11.20
2023-01-13T22:57:47.403Z,11.20
2023-01-13T23:02:50.182Z,11.10
2023-01-13T23:07:52.315Z,11.30
2023-01-13T23:12:54.489Z,11.30
2023-01-13T23:17:57.064Z,11.20
2023-01-13T23:22:59.203Z,11.20
2023-01-13T23:28:01.403Z,11.20
2023-01-13T23:38:06.151Z,11.10
2023-01-13T23:43:08.218Z,11.00
2023-01-13T23:48:11.222Z,11.00
2023-01-13T23:53:13.345Z,11.00
2023-01-13T23:58:15.552Z,10.90
